Time;durP1;ratioP1;P1;durP2;ratioP2;P2;SDS_P1;SDS_P2;PMS_P1;PMS_P2;Temp;Humidity;BMP_temperature;BMP_pressure;BME280_temperature;BME280_humidity;BME280_pressure;Samples;Min_cycle;Max_cycle;Signal;HPM_P1;HPM_P2
2023/08/02 00:00:27;;;;;;;;;;;;;;;15.32;100.00;100127.25;5052389;28;19920;-77
2023/08/02 00:02:53;;;;;;;;;;;;;;;15.30;100.00;100125.78;5070087;28;19924;-75
2023/08/02 00:05:18;;;;;;;;;;;;;;;15.27;100.00;100105.56;5070365;28;20317;-75
2023/08/02 00:07:43;;;;;;;;;;;;;;;15.23;100.00;100100.75;5070913;28;20297;-75
2023/08/02 00:10:09;;;;;;;;;;;;;;;15.15;100.00;100104.34;5070716;28;20309;-75
2023/08/02 00:12:34;;;;;;;;;;;;;;;15.09;100.00;100114.00;5071273;28;20325;-75
2023/08/02 00:14:59;;;;;;;;;;;;;;;15.02;100.00;100104.19;5071129;28;19977;-75
2023/08/02 00:17:24;;;;;;;;;;;;;;;14.95;100.00;100112.16;5052910;28;20118;-75
2023/08/02 00:19:49;;;;;;;;;;;;;;;14.90;100.00;100114.53;5070777;28;19924;-75
2023/08/02 00:22:15;;;;;;;;;;;;;;;14.84;100.00;100113.44;5070810;28;19935;-75
2023/08/02 00:24:40;;;;;;;;;;;;;;;14.79;100.00;100105.13;5070885;28;19920;-75
2023/08/02 00:27:05;;;;;;;;;;;;;;;14.76;100.00;100105.50;5070487;28;19921;-75
2023/08/02 00:29:30;;;;;;;;;;;;;;;14.75;100.00;100110.03;5070649;28;20290;-76
2023/08/02 00:31:56;;;;;;;;;;;;;;;14.79;100.00;100111.31;5070557;28;19924;-74
2023/08/02 00:34:21;;;;;;;;;;;;;;;14.83;100.00;100100.25;5070782;28;20349;-75
2023/08/02 00:36:46;;;;;;;;;;;;;;;14.87;100.00;100093.47;5070672;28;19924;-75
2023/08/02 00:39:11;;;;;;;;;;;;;;;14.91;100.00;100100.13;5070357;28;19929;-75
2023/08/02 00:41:37;;;;;;;;;;;;;;;14.96;100.00;100095.06;5069934;28;19921;-75
2023/08/02 00:44:02;;;;;;;;;;;;;;;15.00;100.00;100088.28;5070596;28;20311;-75
2023/08/02 00:46:27;;;;;;;;;;;;;;;15.02;100.00;100090.78;5069853;28;20238;-75
2023/08/02 00:48:53;;;;;;;;;;;;;;;15.03;100.00;100089.78;5070159;28;19924;-75
2023/08/02 00:51:19;;;;;;;;;;;;;;;15.04;100.00;100080.72;5053765;28;20015;-84
2023/08/02 00:53:46;;;;;;;;;;;;;;;15.05;100.00;100091.25;5072777;28;20284;-83
2023/08/02 00:56:15;;;;;;;;;;;;;;;15.07;100.00;100089.22;5055275;28;19970;-84
2023/08/02 00:58:41;;;;;;;;;;;;;;;15.09;100.00;100075.63;5072890;28;19963;-84
2023/08/02 01:01:07;;;;;;;;;;;;;;;15.13;100.00;100074.25;5072881;28;19920;-86
2023/08/02 01:03:44;;;;;;;;;;;;;;;15.14;100.00;100075.91;5055079;28;19935;-84
2023/08/02 01:06:28;;;;;;;;;;;;;;;15.14;100.00;100074.06;5056150;28;19916;-85
2023/08/02 01:09:20;;;;;;;;;;;;;;;15.14;100.00;100070.56;5081431;28;19913;-83
2023/08/02 01:11:55;;;;;;;;;;;;;;;15.13;100.00;100050.97;5042919;28;19917;-84
2023/08/02 01:14:20;;;;;;;;;;;;;;;15.14;100.00;100052.63;5075785;28;19956;-83
2023/08/02 01:16:48;;;;;;;;;;;;;;;15.15;100.00;100038.22;5058542;28;20011;-84
2023/08/02 01:19:13;;;;;;;;;;;;;;;15.14;100.00;100047.28;5062291;28;20328;-86
2023/08/02 01:21:39;;;;;;;;;;;;;;;15.13;100.00;100045.59;5059216;28;19917;-86
2023/08/02 01:24:05;;;;;;;;;;;;;;;15.13;100.00;100047.47;5079954;28;19924;-86
2023/08/02 01:26:31;;;;;;;;;;;;;;;15.10;100.00;100045.97;5076112;28;20007;-84
2023/08/02 01:28:59;;;;;;;;;;;;;;;15.08;100.00;100036.50;5057883;28;19923;-82
2023/08/02 01:31:25;;;;;;;;;;;;;;;15.07;100.00;100030.28;5058151;28;19916;-85
2023/08/02 01:33:52;;;;;;;;;;;;;;;15.07;100.00;100043.66;5057271;28;19939;-84
2023/08/02 01:36:18;;;;;;;;;;;;;;;15.07;100.00;100024.09;5075636;28;19969;-84
2023/08/02 01:38:43;;;;;;;;;;;;;;;15.07;100.00;100016.88;5075415;28;19921;-83
2023/08/02 01:41:08;;;;;;;;;;;;;;;15.07;100.00;100011.53;5075152;28;19962;-84
2023/08/02 01:43:33;;;;;;;;;;;;;;;15.07;100.00;100008.84;5057304;28;20012;-85
2023/08/02 01:45:59;;;;;;;;;;;;;;;15.07;100.00;100008.84;5057128;28;19968;-84
2023/08/02 01:48:26;;;;;;;;;;;;;;;15.06;100.00;100001.84;5057354;28;20089;-85
2023/08/02 01:50:51;;;;;;;;;;;;;;;15.05;100.00;99999.34;5075442;28;19916;-83
2023/08/02 01:53:16;;;;;;;;;;;;;;;15.03;100.00;99991.47;5056634;28;19921;-81
2023/08/02 01:55:42;;;;;;;;;;;;;;;14.98;100.00;99978.66;5056323;28;20295;-86
2023/08/02 01:58:07;;;;;;;;;;;;;;;14.97;100.00;99973.50;5057244;28;20069;-88
2023/08/02 02:00:32;;;;;;;;;;;;;;;14.93;100.00;99967.69;5056669;28;19927;-86
2023/08/02 02:02:58;;;;;;;;;;;;;;;14.90;100.00;99954.69;5040619;28;20361;-86
2023/08/02 02:05:23;;;;;;;;;;;;;;;14.86;100.00;99945.38;5057330;28;20316;-87
2023/08/02 02:07:49;;;;;;;;;;;;;;;14.81;100.00;99937.06;5056826;28;20382;-88
2023/08/02 02:10:14;;;;;;;;;;;;;;;14.78;100.00;99940.13;5056816;28;20026;-86
2023/08/02 02:12:39;;;;;;;;;;;;;;;14.73;100.00;99938.00;5040056;28;20249;-87
2023/08/02 02:15:05;;;;;;;;;;;;;;;14.71;100.00;99932.00;5074603;28;19975;-87
2023/08/02 02:17:30;;;;;;;;;;;;;;;14.69;100.00;99922.50;5074434;28;20277;-87
2023/08/02 02:19:55;;;;;;;;;;;;;;;14.66;100.00;99913.03;5060025;28;19974;-87
2023/08/02 02:22:20;;;;;;;;;;;;;;;14.63;100.00;99908.88;5080023;28;19920;-86
2023/08/02 02:24:46;;;;;;;;;;;;;;;14.62;100.00;99904.50;5058167;28;19922;-88
2023/08/02 02:27:11;;;;;;;;;;;;;;;14.61;100.00;99896.69;5056125;28;19921;-85
2023/08/02 02:29:36;;;;;;;;;;;;;;;14.57;100.00;99888.16;5056491;28;19920;-87
2023/08/02 02:32:01;;;;;;;;;;;;;;;14.54;100.00;99891.22;5074263;28;19928;-87
2023/08/02 02:34:28;;;;;;;;;;;;;;;14.52;100.00;99892.44;5056150;28;19931;-85
2023/08/02 02:36:53;;;;;;;;;;;;;;;14.49;100.00;99888.28;5076775;28;19927;-89
2023/08/02 02:39:18;;;;;;;;;;;;;;;14.45;100.00;99890.50;5057249;28;19921;-89
2023/08/02 02:41:44;;;;;;;;;;;;;;;14.43;100.00;99897.06;5075521;28;19921;-88
2023/08/02 02:44:09;;;;;;;;;;;;;;;14.39;100.00;99893.94;5077092;28;20414;-88
2023/08/02 02:46:34;;;;;;;;;;;;;;;14.36;100.00;99888.94;5040489;28;20387;-87
2023/08/02 02:48:59;;;;;;;;;;;;;;;14.35;100.00;99889.16;5075039;28;20295;-87
2023/08/02 02:51:24;;;;;;;;;;;;;;;14.36;100.00;99894.31;5079239;28;20356;-90
2023/08/02 02:53:50;;;;;;;;;;;;;;;14.38;100.00;99886.91;5057260;28;19920;-88
2023/08/02 02:56:15;;;;;;;;;;;;;;;14.39;100.00;99874.34;5075029;28;19927;-87
2023/08/02 02:58:40;;;;;;;;;;;;;;;14.41;100.00;99866.97;5075061;28;20233;-84
2023/08/02 03:01:05;;;;;;;;;;;;;;;14.42;100.00;99865.94;5056407;28;19920;-87
2023/08/02 03:03:33;;;;;;;;;;;;;;;14.43;100.00;99846.19;5074644;28;19921;-81
2023/08/02 03:05:59;;;;;;;;;;;;;;;14.43;100.00;99836.31;5074345;28;19924;-87
2023/08/02 03:08:24;;;;;;;;;;;;;;;14.43;100.00;99822.94;5074682;28;20341;-87
2023/08/02 03:10:49;;;;;;;;;;;;;;;14.43;100.00;99814.91;5056420;28;20011;-85
2023/08/02 03:13:14;;;;;;;;;;;;;;;14.43;100.00;99803.38;5074831;28;19920;-85
2023/08/02 03:15:40;;;;;;;;;;;;;;;14.45;100.00;99801.34;5057031;28;19971;-82
2023/08/02 03:18:05;;;;;;;;;;;;;;;14.45;100.00;99814.72;5059530;28;19921;-87
2023/08/02 03:20:31;;;;;;;;;;;;;;;14.45;100.00;99795.97;5063549;28;19921;-86
2023/08/02 03:22:57;;;;;;;;;;;;;;;14.46;100.00;99793.16;5043166;28;19921;-86
2023/08/02 03:25:22;;;;;;;;;;;;;;;14.48;100.00;99794.78;5088627;28;20028;-86
2023/08/02 03:27:47;;;;;;;;;;;;;;;14.49;100.00;99777.72;5052591;28;20015;-88
2023/08/02 03:30:12;;;;;;;;;;;;;;;14.49;100.00;99767.00;5084224;28;19917;-86
2023/08/02 03:32:38;;;;;;;;;;;;;;;14.50;100.00;99771.34;5063336;28;19920;-85
2023/08/02 03:35:03;;;;;;;;;;;;;;;14.51;100.00;99773.00;5060469;28;19920;-86
2023/08/02 03:37:29;;;;;;;;;;;;;;;14.52;100.00;99772.81;5074083;28;19960;-85
2023/08/02 03:39:54;;;;;;;;;;;;;;;14.52;100.00;99759.41;5056253;28;19920;-87
2023/08/02 03:42:21;;;;;;;;;;;;;;;14.52;100.00;99756.75;5038518;28;20029;-86
2023/08/02 03:44:46;;;;;;;;;;;;;;;14.54;100.00;99748.53;5055259;28;19921;-86
2023/08/02 03:47:11;;;;;;;;;;;;;;;14.55;100.00;99747.50;5055469;28;19921;-87
2023/08/02 03:49:37;;;;;;;;;;;;;;;14.56;100.00;99744.63;5072841;28;19970;-84
2023/08/02 03:52:04;;;;;;;;;;;;;;;14.56;100.00;99741.97;5038371;28;20403;-89
2023/08/02 03:54:29;;;;;;;;;;;;;;;14.58;100.00;99741.78;5055607;28;19920;-87
2023/08/02 03:56:55;;;;;;;;;;;;;;;14.58;100.00;99731.06;5038003;28;20336;-87
2023/08/02 03:59:20;;;;;;;;;;;;;;;14.59;100.00;99730.06;5054735;28;20426;-88
2023/08/02 04:01:45;;;;;;;;;;;;;;;14.59;100.00;99712.13;5037853;28;19931;-87
2023/08/02 04:04:11;;;;;;;;;;;;;;;14.59;100.00;99714.00;5072650;28;19970;-87
2023/08/02 04:06:36;;;;;;;;;;;;;;;14.55;100.00;99704.69;5055359;28;19925;-87
2023/08/02 04:09:01;;;;;;;;;;;;;;;14.51;100.00;99696.22;5073599;28;20349;-88
2023/08/02 04:11:26;;;;;;;;;;;;;;;14.46;100.00;99687.94;5054885;28;20272;-87
2023/08/02 04:13:52;;;;;;;;;;;;;;;14.43;100.00;99683.78;5038654;28;20026;-88
2023/08/02 04:16:17;;;;;;;;;;;;;;;14.42;100.00;99681.28;5054926;28;20055;-87
2023/08/02 04:18:42;;;;;;;;;;;;;;;14.40;100.00;99664.63;5057045;28;19925;-87
2023/08/02 04:21:08;;;;;;;;;;;;;;;14.39;100.00;99666.47;5077740;28;20420;-87
2023/08/02 04:23:33;;;;;;;;;;;;;;;14.37;100.00;99663.16;5073838;28;19972;-86
2023/08/02 04:25:58;;;;;;;;;;;;;;;14.35;100.00;99640.31;5057634;28;19921;-87
2023/08/02 04:28:23;;;;;;;;;;;;;;;14.34;100.00;99638.63;5054484;28;20419;-88
2023/08/02 04:30:52;;;;;;;;;;;;;;;14.31;100.00;99633.66;5055323;28;19920;-88
2023/08/02 04:33:17;;;;;;;;;;;;;;;14.26;100.00;99631.56;5054283;28;20376;-85
2023/08/02 04:35:43;;;;;;;;;;;;;;;14.22;100.00;99628.44;5072695;28;19916;-86
2023/08/02 04:38:08;;;;;;;;;;;;;;;14.20;100.00;99629.69;5054068;28;19927;-86
2023/08/02 04:40:37;;;;;;;;;;;;;;;14.19;100.00;99618.13;5054807;28;19927;-87
2023/08/02 04:43:02;;;;;;;;;;;;;;;14.19;100.00;99603.94;5054633;28;19925;-91
2023/08/02 04:45:28;;;;;;;;;;;;;;;14.18;100.00;99594.25;5073442;28;20257;-88
2023/08/02 04:47:53;;;;;;;;;;;;;;;14.15;100.00;99587.44;5073335;28;19927;-89
2023/08/02 04:50:18;;;;;;;;;;;;;;;14.14;100.00;99595.66;5058862;28;19921;-92
2023/08/02 04:52:43;;;;;;;;;;;;;;;14.08;100.00;99587.38;5076917;28;20358;-87
2023/08/02 04:55:09;;;;;;;;;;;;;;;14.06;100.00;99567.19;5076620;28;19921;-91
2023/08/02 04:57:34;;;;;;;;;;;;;;;14.05;100.00;99566.38;5058263;28;20016;-90
2023/08/02 04:59:59;;;;;;;;;;;;;;;14.03;100.00;99557.72;5042193;28;19931;-91
2023/08/02 05:02:32;;;;;;;;;;;;;;;14.02;100.00;99548.03;5076619;28;20013;-89
2023/08/02 05:04:57;;;;;;;;;;;;;;;14.01;100.00;99533.00;5042187;28;20380;-85
2023/08/02 05:07:23;;;;;;;;;;;;;;;14.02;100.00;99525.84;5057814;28;19981;-86
2023/08/02 05:09:48;;;;;;;;;;;;;;;14.05;100.00;99515.56;5076085;28;19916;-85
2023/08/02 05:12:13;;;;;;;;;;;;;;;14.06;100.00;99514.56;5075868;28;19916;-86
2023/08/02 05:14:38;;;;;;;;;;;;;;;14.07;100.00;99510.03;5057885;28;20023;-87
2023/08/02 05:17:07;;;;;;;;;;;;;;;14.07;100.00;99513.50;5057740;28;20015;-85
2023/08/02 05:19:33;;;;;;;;;;;;;;;14.09;100.00;99513.31;5060177;28;19931;-85
2023/08/02 05:21:58;;;;;;;;;;;;;;;14.06;100.00;99511.03;5058173;28;19920;-84
2023/08/02 05:24:23;;;;;;;;;;;;;;;14.04;100.00;99500.53;5058886;28;19920;-83
2023/08/02 05:26:48;;;;;;;;;;;;;;;14.05;100.00;99496.84;5075480;28;20352;-86
2023/08/02 05:29:14;;;;;;;;;;;;;;;14.06;100.00;99494.97;5057715;28;19970;-82
2023/08/02 05:31:40;;;;;;;;;;;;;;;14.06;100.00;99477.09;5075542;28;19990;-85
2023/08/02 05:34:05;;;;;;;;;;;;;;;14.05;100.00;99478.13;5075686;28;20236;-80
2023/08/02 05:36:30;;;;;;;;;;;;;;;14.03;100.00;99472.16;5057298;28;20049;-85
2023/08/02 05:38:56;;;;;;;;;;;;;;;14.01;100.00;99470.69;5057121;28;19927;-81
2023/08/02 05:41:21;;;;;;;;;;;;;;;14.01;100.00;99474.19;5075138;28;20030;-80
2023/08/02 05:43:46;;;;;;;;;;;;;;;13.99;100.00;99467.38;5074967;28;19921;-81
2023/08/02 05:46:11;;;;;;;;;;;;;;;13.99;100.00;99470.03;5057276;28;20091;-85
2023/08/02 05:48:37;;;;;;;;;;;;;;;14.00;100.00;99461.84;5056977;28;19928;-79
2023/08/02 05:51:02;;;;;;;;;;;;;;;14.01;100.00;99458.13;5057145;28;19924;-81
2023/08/02 05:53:27;;;;;;;;;;;;;;;14.02;100.00;99448.28;5075144;28;19921;-80
2023/08/02 05:55:54;;;;;;;;;;;;;;;14.02;100.00;99441.06;5074965;28;19921;-80
2023/08/02 05:58:19;;;;;;;;;;;;;;;14.02;100.00;99440.25;5074919;28;20367;-79
2023/08/02 06:00:45;;;;;;;;;;;;;;;14.03;100.00;99431.19;5055830;28;19916;-79
2023/08/02 06:03:10;;;;;;;;;;;;;;;14.03;100.00;99424.03;5074785;28;20030;-78
2023/08/02 06:05:37;;;;;;;;;;;;;;;14.03;100.00;99421.34;5075427;28;19921;-80
2023/08/02 06:08:02;;;;;;;;;;;;;;;14.03;100.00;99418.66;5075136;28;20015;-81
2023/08/02 06:10:27;;;;;;;;;;;;;;;14.05;100.00;99411.25;5056956;28;19913;-79
2023/08/02 06:12:52;;;;;;;;;;;;;;;14.06;100.00;99399.56;5056417;28;19923;-82
2023/08/02 06:15:18;;;;;;;;;;;;;;;14.07;100.00;99389.66;5056688;28;19973;-82
2023/08/02 06:17:43;;;;;;;;;;;;;;;14.05;100.00;99370.34;5056498;28;19924;-83
2023/08/02 06:20:09;;;;;;;;;;;;;;;14.06;100.00;99355.91;5074695;28;19916;-77
2023/08/02 06:22:34;;;;;;;;;;;;;;;14.04;100.00;99355.31;5074016;28;20019;-83
2023/08/02 06:24:59;;;;;;;;;;;;;;;14.02;100.00;99349.34;5056175;28;19932;-77
2023/08/02 06:27:25;;;;;;;;;;;;;;;14.02;100.00;99339.47;5073893;28;19928;-78
2023/08/02 06:29:50;;;;;;;;;;;;;;;14.01;100.00;99316.41;5074398;28;19928;-77
2023/08/02 06:32:15;;;;;;;;;;;;;;;14.02;100.00;99325.28;5074315;28;20003;-77
2023/08/02 06:34:41;;;;;;;;;;;;;;;14.04;100.00;99329.38;5074113;28;19920;-79
2023/08/02 06:37:06;;;;;;;;;;;;;;;14.05;100.00;99316.84;5073870;28;20371;-79
2023/08/02 06:39:32;;;;;;;;;;;;;;;14.07;100.00;99314.78;5055858;28;20371;-80
2023/08/02 06:41:57;;;;;;;;;;;;;;;14.12;100.00;99312.34;5073932;28;20019;-79
2023/08/02 06:44:22;;;;;;;;;;;;;;;14.16;100.00;99321.63;5073879;28;19955;-83
2023/08/02 06:46:48;;;;;;;;;;;;;;;14.18;100.00;99310.72;5073971;28;20383;-81
2023/08/02 06:49:13;;;;;;;;;;;;;;;14.19;100.00;99299.00;5055618;28;19963;-79
2023/08/02 06:51:38;;;;;;;;;;;;;;;14.19;100.00;99294.47;5073590;28;19917;-88
2023/08/02 06:54:03;;;;;;;;;;;;;;;14.21;100.00;99276.38;5055715;28;20053;-86
2023/08/02 06:56:29;;;;;;;;;;;;;;;14.22;100.00;99270.00;5073511;28;19955;-81
2023/08/02 06:58:54;;;;;;;;;;;;;;;14.28;100.00;99263.84;5073063;28;20017;-81
2023/08/02 07:01:20;;;;;;;;;;;;;;;14.35;100.00;99249.66;5073437;28;19927;-82
2023/08/02 07:03:46;;;;;;;;;;;;;;;14.40;100.00;99248.00;5073513;28;19920;-79
2023/08/02 07:06:21;;;;;;;;;;;;;;;14.40;100.00;99231.97;5073012;28;19943;-83
2023/08/02 07:08:49;;;;;;;;;;;;;;;14.43;100.00;99236.91;5073631;28;20391;-84
2023/08/02 07:11:23;;;;;;;;;;;;;;;14.49;100.00;99229.09;5054793;28;19921;-90
2023/08/02 07:13:50;;;;;;;;;;;;;;;14.52;100.00;99210.78;5056548;28;20352;-84
2023/08/02 07:16:16;;;;;;;;;;;;;;;14.56;100.00;99211.22;5073580;28;20019;-84
2023/08/02 07:18:43;;;;;;;;;;;;;;;14.56;100.00;99201.31;5073298;28;20110;-87
2023/08/02 07:21:09;;;;;;;;;;;;;;;14.55;100.00;99199.66;5073934;28;19925;-80
2023/08/02 07:23:35;;;;;;;;;;;;;;;14.61;100.00;99192.69;5073131;28;19916;-81
2023/08/02 07:26:00;;;;;;;;;;;;;;;14.67;100.00;99189.19;5074619;28;19921;-81
2023/08/02 07:28:26;;;;;;;;;;;;;;;14.69;100.00;99184.47;5073413;28;19916;-82
2023/08/02 07:30:51;;;;;;;;;;;;;;;14.66;100.00;99176.03;5072746;28;19943;-78
2023/08/02 07:33:17;;;;;;;;;;;;;;;14.63;100.00;99180.78;5054844;28;19969;-80
2023/08/02 07:35:42;;;;;;;;;;;;;;;14.65;100.00;99175.22;5055131;28;19924;-76
2023/08/02 07:38:07;;;;;;;;;;;;;;;14.63;100.00;99174.59;5072953;28;19927;-77
2023/08/02 07:40:33;;;;;;;;;;;;;;;14.61;100.00;99172.13;5038069;28;20300;-79
2023/08/02 07:42:58;;;;;;;;;;;;;;;14.65;100.00;99166.38;5072504;28;20372;-78
2023/08/02 07:45:23;;;;;;;;;;;;;;;14.71;100.00;99162.84;5072677;28;19926;-81
2023/08/02 07:47:49;;;;;;;;;;;;;;;14.74;100.00;99160.56;5072769;28;19927;-84
2023/08/02 07:50:14;;;;;;;;;;;;;;;14.73;100.00;99152.75;5055518;28;19924;-81
2023/08/02 07:52:39;;;;;;;;;;;;;;;14.71;100.00;99157.50;5073311;28;20288;-78
2023/08/02 07:57:56;;;;;;;;;;;;;;;14.70;100.00;99148.63;5058589;28;19923;-89
2023/08/02 08:00:23;;;;;;;;;;;;;;;14.71;100.00;99155.66;5055679;28;20284;-82
2023/08/02 08:02:49;;;;;;;;;;;;;;;14.73;100.00;99150.91;5055544;28;19970;-79
2023/08/02 08:05:14;;;;;;;;;;;;;;;14.78;100.00;99147.63;5051791;28;19924;-81
2023/08/02 08:07:47;;;;;;;;;;;;;;;14.79;100.00;99139.38;5053383;28;19928;-88
2023/08/02 08:10:12;;;;;;;;;;;;;;;14.80;100.00;99132.97;5053614;28;19921;-82
2023/08/02 08:12:37;;;;;;;;;;;;;;;14.82;100.00;99135.44;5053470;28;19939;-84
2023/08/02 08:15:06;;;;;;;;;;;;;;;14.83;100.00;99131.75;5053834;28;19940;-85
2023/08/02 08:17:31;;;;;;;;;;;;;;;14.90;100.00;99123.69;5052906;28;19921;-84
2023/08/02 08:19:57;;;;;;;;;;;;;;;15.05;100.00;99104.69;5051512;28;20379;-83
2023/08/02 08:22:30;;;;;;;;;;;;;;;15.18;100.00;99099.31;5055141;28;19930;-86
2023/08/02 08:25:11;;;;;;;;;;;;;;;15.24;100.00;99093.13;5052448;28;19971;-87
2023/08/02 08:27:36;;;;;;;;;;;;;;;15.37;100.00;99089.53;5052591;28;19923;-80
2023/08/02 08:30:05;;;;;;;;;;;;;;;15.50;100.00;99094.03;5052333;28;20012;-85
2023/08/02 08:32:30;;;;;;;;;;;;;;;15.78;100.00;99085.66;5053444;28;19924;-83
2023/08/02 08:34:55;;;;;;;;;;;;;;;16.08;100.00;99084.22;5053596;28;20426;-86
2023/08/02 08:37:21;;;;;;;;;;;;;;;16.17;100.00;99089.09;5052265;28;20357;-86
2023/08/02 08:39:49;;;;;;;;;;;;;;;16.38;100.00;99085.22;5053431;28;19942;-89
2023/08/02 08:42:17;;;;;;;;;;;;;;;16.51;100.00;99075.38;5053533;28;19924;-86
2023/08/02 08:44:46;;;;;;;;;;;;;;;16.53;100.00;99058.03;5054383;28;19925;-87
2023/08/02 08:47:12;;;;;;;;;;;;;;;16.51;100.00;99065.50;5053344;28;19917;-85
2023/08/02 08:49:40;;;;;;;;;;;;;;;16.47;100.00;99074.22;5055299;28;19917;-88
2023/08/02 08:52:10;;;;;;;;;;;;;;;16.44;100.00;99069.28;5060190;28;19917;-84
2023/08/02 08:54:36;;;;;;;;;;;;;;;16.45;100.00;99077.13;5068688;28;19917;-84
2023/08/02 08:57:06;;;;;;;;;;;;;;;16.45;100.00;99068.22;5068666;28;19927;-81
2023/08/02 08:59:35;;;;;;;;;;;;;;;16.47;100.00;99058.91;5060897;28;19924;-86
2023/08/02 09:02:05;;;;;;;;;;;;;;;16.53;100.00;99066.06;5053732;28;20011;-86
2023/08/02 09:04:39;;;;;;;;;;;;;;;16.56;100.00;99056.78;5057631;28;19925;-89
2023/08/02 09:07:04;;;;;;;;;;;;;;;16.61;100.00;99059.59;5055349;28;20379;-84
2023/08/02 09:09:32;;;;;;;;;;;;;;;16.63;100.00;99060.22;5074343;28;20005;-84
2023/08/02 09:11:59;;;;;;;;;;;;;;;16.70;100.00;99054.75;5055787;28;19987;-85
2023/08/02 09:14:26;;;;;;;;;;;;;;;16.79;100.00;99057.97;5074225;28;19916;-86
2023/08/02 09:17:15;;;;;;;;;;;;;;;17.03;100.00;99046.38;5058523;28;19927;-88
2023/08/02 09:19:45;;;;;;;;;;;;;;;17.48;100.00;99037.13;5075012;28;20424;-85
2023/08/02 09:22:14;;;;;;;;;;;;;;;17.71;100.00;99027.50;5075865;28;19916;-85
2023/08/02 09:24:41;;;;;;;;;;;;;;;17.80;100.00;99028.78;5075543;28;19924;-89
2023/08/02 09:27:16;;;;;;;;;;;;;;;17.82;100.00;99036.63;5075029;28;19923;-88
2023/08/02 09:29:43;;;;;;;;;;;;;;;17.76;100.00;99052.63;5073975;28;19916;-82
2023/08/02 09:32:08;;;;;;;;;;;;;;;17.53;100.00;99056.06;5038361;28;19917;-80
2023/08/02 09:34:46;;;;;;;;;;;;;;;17.36;100.00;99042.47;5073846;28;20399;-83
2023/08/02 09:37:12;;;;;;;;;;;;;;;17.35;100.00;99040.00;5058688;28;19966;-85
2023/08/02 09:39:42;;;;;;;;;;;;;;;17.50;100.00;99050.34;5076659;28;19969;-87
2023/08/02 09:42:13;;;;;;;;;;;;;;;18.14;100.00;99037.19;5077898;28;20233;-87
2023/08/02 09:44:39;;;;;;;;;;;;;;;18.50;100.00;99046.09;5076455;28;20046;-89
2023/08/02 09:47:13;;;;;;;;;;;;;;;18.62;100.00;99052.28;5076722;28;20392;-92
2023/08/02 09:49:39;;;;;;;;;;;;;;;18.10;100.00;99055.66;5076293;28;20011;-84
2023/08/02 09:52:12;;;;;;;;;;;;;;;17.88;100.00;99054.53;5076904;28;20107;-91
2023/08/02 09:54:46;;;;;;;;;;;;;;;18.17;100.00;99052.03;5076946;28;20001;-91
2023/08/02 09:57:11;;;;;;;;;;;;;;;18.88;100.00;99050.19;5058119;28;19920;-91
2023/08/02 09:59:37;;;;;;;;;;;;;;;19.49;100.00;99037.09;5076412;28;19923;-87
2023/08/02 10:02:03;;;;;;;;;;;;;;;19.94;100.00;99030.09;5058689;28;20031;-83
2023/08/02 10:04:29;;;;;;;;;;;;;;;20.36;100.00;99023.44;5058366;28;20364;-86
2023/08/02 10:07:02;;;;;;;;;;;;;;;20.48;100.00;99009.84;5076299;28;19916;-83
2023/08/02 10:09:30;;;;;;;;;;;;;;;20.40;100.00;99003.78;5076147;28;19969;-86
2023/08/02 10:11:55;;;;;;;;;;;;;;;20.48;100.00;99010.66;5057453;28;19924;-82
2023/08/02 10:14:21;;;;;;;;;;;;;;;21.10;100.00;99017.69;5058230;28;19917;-83
2023/08/02 10:16:46;;;;;;;;;;;;;;;21.88;100.00;99004.97;5042447;28;19928;-87
2023/08/02 10:19:12;;;;;;;;;;;;;;;22.25;100.00;99002.25;5075881;28;19917;-86
2023/08/02 10:21:38;;;;;;;;;;;;;;;22.06;100.00;98996.44;5058519;28;19924;-87
2023/08/02 10:24:04;;;;;;;;;;;;;;;21.63;100.00;99006.34;5083178;28;19920;-88
2023/08/02 10:26:30;;;;;;;;;;;;;;;21.46;100.00;99001.03;5077730;28;19917;-82
2023/08/02 10:28:59;;;;;;;;;;;;;;;21.09;100.00;98993.59;5064885;28;19928;-89
2023/08/02 10:31:25;;;;;;;;;;;;;;;20.44;100.00;98996.84;5060144;28;19921;-85
2023/08/02 10:33:50;;;;;;;;;;;;;;;20.18;100.00;98987.56;5058486;28;20364;-85
2023/08/02 10:36:15;;;;;;;;;;;;;;;20.83;100.00;98985.22;5077168;28;19921;-88
2023/08/02 10:38:47;;;;;;;;;;;;;;;21.60;100.00;98977.94;5076398;28;19916;-87
2023/08/02 10:41:12;;;;;;;;;;;;;;;22.16;100.00;98972.13;5077344;28;19916;-84
2023/08/02 10:43:53;;;;;;;;;;;;;;;22.87;100.00;98961.94;5065007;28;20322;-86
2023/08/02 10:46:22;;;;;;;;;;;;;;;23.17;100.00;98941.44;5084479;28;19917;-88
2023/08/02 10:48:48;;;;;;;;;;;;;;;23.68;100.00;98949.66;5081609;28;19939;-90
2023/08/02 10:51:32;;;;;;;;;;;;;;;23.82;100.00;98957.25;5063582;28;19929;-84
2023/08/02 10:54:19;;;;;;;;;;;;;;;23.89;100.00;98958.63;5057905;28;19917;-83
2023/08/02 10:56:50;;;;;;;;;;;;;;;24.11;100.00;98974.63;5075728;28;19940;-81
2023/08/02 10:59:16;;;;;;;;;;;;;;;24.85;100.00;98962.50;5075284;28;19920;-83
2023/08/02 11:02:00;;;;;;;;;;;;;;;24.43;100.00;98953.66;5057207;28;19974;-80
2023/08/02 11:04:27;;;;;;;;;;;;;;;24.44;100.00;98979.75;5074939;28;19920;-81
2023/08/02 11:06:54;;;;;;;;;;;;;;;25.10;100.00;98958.84;5074632;28;20456;-87
2023/08/02 11:09:29;;;;;;;;;;;;;;;25.50;100.00;98952.31;5074503;28;19920;-78
2023/08/02 11:11:54;;;;;;;;;;;;;;;25.81;100.00;98965.69;5056427;28;19951;-86
2023/08/02 11:14:27;;;;;;;;;;;;;;;25.14;98.05;98954.44;5056938;28;19920;-83
2023/08/02 11:16:52;;;;;;;;;;;;;;;24.96;100.00;98964.88;5074554;28;19920;-85
2023/08/02 11:19:17;;;;;;;;;;;;;;;24.72;100.00;98956.56;5074135;28;19922;-81
2023/08/02 11:21:51;;;;;;;;;;;;;;;25.38;100.00;98960.03;5074427;28;19959;-82
2023/08/02 11:24:16;;;;;;;;;;;;;;;25.49;97.58;98966.22;5075476;28;20033;-83
2023/08/02 11:26:42;;;;;;;;;;;;;;;24.98;92.38;98946.38;5074181;28;19925;-85
2023/08/02 11:29:07;;;;;;;;;;;;;;;24.82;94.49;98958.41;5074908;28;19939;-81
2023/08/02 11:31:32;;;;;;;;;;;;;;;24.26;86.16;98948.53;5056188;28;19920;-78
2023/08/02 11:33:58;;;;;;;;;;;;;;;24.65;100.00;98953.34;5055990;28;19927;-82
2023/08/02 11:36:23;;;;;;;;;;;;;;;24.93;91.96;98940.13;5073939;28;20383;-81
2023/08/02 11:38:49;;;;;;;;;;;;;;;24.96;74.63;98943.13;5073715;28;19955;-80
2023/08/02 11:41:19;;;;;;;;;;;;;;;24.89;82.31;98958.94;5073500;28;19924;-83
2023/08/02 11:43:44;;;;;;;;;;;;;;;24.72;82.37;98944.84;5073520;28;19921;-79
2023/08/02 11:46:21;;;;;;;;;;;;;;;24.93;82.38;98953.72;5055723;28;20030;-78
2023/08/02 11:48:46;;;;;;;;;;;;;;;24.76;76.89;98960.34;5073706;28;19963;-76
2023/08/02 11:51:12;;;;;;;;;;;;;;;25.06;86.29;98955.03;5073716;28;19955;-78
2023/08/02 11:53:51;;;;;;;;;;;;;;;24.90;86.06;98946.13;5073612;28;19978;-86
2023/08/02 11:56:17;;;;;;;;;;;;;;;25.22;77.92;98947.59;5073904;28;19917;-80
2023/08/02 11:58:44;;;;;;;;;;;;;;;25.48;79.12;98943.66;5072616;28;20007;-80
2023/08/02 12:01:10;;;;;;;;;;;;;;;24.90;84.73;98940.69;5055424;28;19920;-77
2023/08/02 12:03:35;;;;;;;;;;;;;;;24.94;84.64;98936.34;5073857;28;19982;-78
2023/08/02 12:06:02;;;;;;;;;;;;;;;24.78;83.76;98930.97;5055288;28;19924;-82
2023/08/02 12:08:27;;;;;;;;;;;;;;;24.11;91.20;98942.03;5055587;28;20011;-78
2023/08/02 12:10:52;;;;;;;;;;;;;;;23.60;99.57;98931.19;5055938;28;19955;-77
2023/08/02 12:13:18;;;;;;;;;;;;;;;24.28;87.89;98939.00;5073820;28;19920;-83
2023/08/02 12:16:03;;;;;;;;;;;;;;;24.56;85.04;98947.63;5073903;28;20213;-75
2023/08/02 12:18:28;;;;;;;;;;;;;;;24.92;79.92;98942.06;5055108;28;19917;-79
2023/08/02 12:20:54;;;;;;;;;;;;;;;24.75;75.97;98958.72;5055920;28;19916;-79
2023/08/02 12:23:35;;;;;;;;;;;;;;;24.36;86.56;98948.47;5073629;28;20066;-77
2023/08/02 12:26:00;;;;;;;;;;;;;;;23.36;91.84;98972.44;5074271;28;19981;-79
2023/08/02 12:28:25;;;;;;;;;;;;;;;22.84;99.96;98955.19;5055417;28;20310;-78
2023/08/02 12:31:04;;;;;;;;;;;;;;;22.55;100.00;98960.19;5073996;28;19916;-79
2023/08/02 12:33:31;;;;;;;;;;;;;;;22.43;100.00;98954.19;5073188;28;19921;-79
2023/08/02 12:35:56;;;;;;;;;;;;;;;22.36;100.00;98959.81;5073214;28;19962;-79